createdAt,value
2023-05-18T00:00:35.346Z,3.30
2023-05-18T00:03:07.846Z,3.23
2023-05-18T00:05:36.884Z,4.07
2023-05-18T00:08:05.586Z,4.30
2023-05-18T00:10:33.801Z,3.63
2023-05-18T00:13:01.950Z,4.30
2023-05-18T00:15:30.403Z,3.60
2023-05-18T00:17:59.020Z,4.77
2023-05-18T00:20:29.544Z,4.20
2023-05-18T00:22:57.960Z,4.53
2023-05-18T00:25:26.548Z,4.00
2023-05-18T00:27:54.685Z,4.30
2023-05-18T00:30:24.641Z,3.83
2023-05-18T00:32:52.925Z,4.40
2023-05-18T00:35:21.489Z,4.13
2023-05-18T00:37:51.134Z,4.13
2023-05-18T00:40:19.845Z,4.17
2023-05-18T00:42:48.165Z,4.60
2023-05-18T00:45:16.397Z,4.43
2023-05-18T00:47:44.637Z,4.07
2023-05-18T00:50:13.307Z,3.80
2023-05-18T00:52:42.382Z,4.30
2023-05-18T00:55:14.329Z,3.93
2023-05-18T00:57:45.490Z,3.77
2023-05-18T01:00:15.876Z,3.67
2023-05-18T01:02:46.108Z,5.60
2023-05-18T01:05:14.772Z,4.17
2023-05-18T01:07:43.883Z,4.03
2023-05-18T01:10:18.366Z,4.27
2023-05-18T01:12:52.318Z,4.57
2023-05-18T01:15:26.634Z,4.77
2023-05-18T01:18:22.452Z,4.43
2023-05-18T01:21:00.296Z,3.83
2023-05-18T01:23:54.919Z,5.23
2023-05-18T01:26:30.172Z,4.50
2023-05-18T01:29:02.285Z,4.23
2023-05-18T01:31:31.006Z,4.77
2023-05-18T01:33:59.660Z,4.27
2023-05-18T01:36:28.165Z,4.33
2023-05-18T01:39:01.474Z,4.50
2023-05-18T01:41:32.858Z,4.03
2023-05-18T01:44:07.247Z,6.77
2023-05-18T01:46:44.380Z,4.60
2023-05-18T01:49:23.300Z,4.67
2023-05-18T01:51:52.965Z,5.30
2023-05-18T01:54:23.856Z,3.87
2023-05-18T01:56:57.880Z,4.60
2023-05-18T01:59:26.754Z,3.83
2023-05-18T02:01:59.079Z,4.17
2023-05-18T02:04:29.519Z,4.47
2023-05-18T02:06:57.956Z,4.83
2023-05-18T02:09:26.511Z,5.00
2023-05-18T02:11:56.222Z,5.27
2023-05-18T02:14:26.580Z,4.87
2023-05-18T02:16:54.873Z,4.90
2023-05-18T02:19:25.344Z,4.80
2023-05-18T02:21:55.387Z,4.47
2023-05-18T02:24:24.794Z,4.60
2023-05-18T02:26:53.149Z,5.97
2023-05-18T02:29:22.820Z,4.70
2023-05-18T02:31:51.141Z,4.97
2023-05-18T02:34:20.093Z,5.93
2023-05-18T02:36:48.801Z,5.30
2023-05-18T02:39:17.285Z,5.30
2023-05-18T02:41:45.574Z,4.90
2023-05-18T02:44:13.903Z,5.07
2023-05-18T02:46:43.491Z,5.17
2023-05-18T02:49:11.921Z,5.63
2023-05-18T02:51:40.440Z,5.17
2023-05-18T02:54:09.033Z,6.07
2023-05-18T02:56:41.568Z,4.20
2023-05-18T02:59:22.335Z,5.17
2023-05-18T03:01:52.112Z,5.20
2023-05-18T03:04:22.003Z,5.00
2023-05-18T03:06:54.094Z,4.93
2023-05-18T03:09:24.078Z,5.20
2023-05-18T03:11:55.133Z,5.37
2023-05-18T03:14:23.349Z,5.30
2023-05-18T03:16:54.379Z,5.10
2023-05-18T03:19:25.036Z,4.80
2023-05-18T03:21:53.529Z,5.63
2023-05-18T03:24:22.139Z,5.00
2023-05-18T03:26:54.222Z,4.70
2023-05-18T03:29:23.267Z,5.17
2023-05-18T03:31:54.851Z,5.03
2023-05-18T03:34:23.200Z,5.60
2023-05-18T03:36:52.468Z,5.63
2023-05-18T03:39:21.410Z,5.23
2023-05-18T03:41:49.874Z,5.33
2023-05-18T03:44:18.405Z,5.00
2023-05-18T03:46:46.937Z,5.20
2023-05-18T03:49:16.648Z,5.60
2023-05-18T03:51:44.997Z,6.53
2023-05-18T03:54:13.245Z,6.33
2023-05-18T03:56:42.336Z,5.67
2023-05-18T03:59:10.535Z,5.60
2023-05-18T04:01:42.217Z,4.87
2023-05-18T04:04:17.827Z,5.60
2023-05-18T04:06:49.323Z,4.73
2023-05-18T04:09:18.451Z,5.67
2023-05-18T04:11:47.012Z,6.00
2023-05-18T04:14:17.141Z,5.73
2023-05-18T04:16:46.293Z,5.63
2023-05-18T04:19:16.081Z,5.10
2023-05-18T04:21:44.423Z,5.60
2023-05-18T04:24:15.111Z,5.40
2023-05-18T04:26:43.601Z,6.47
2023-05-18T04:29:13.468Z,4.80
2023-05-18T04:31:44.767Z,5.63
2023-05-18T04:34:14.249Z,6.17
2023-05-18T04:36:44.363Z,5.13
2023-05-18T04:39:14.388Z,5.50
2023-05-18T04:41:42.630Z,5.83
2023-05-18T04:44:10.914Z,5.83
2023-05-18T04:46:40.853Z,6.50
2023-05-18T04:49:11.813Z,5.87
2023-05-18T04:51:42.021Z,5.93
2023-05-18T04:54:10.496Z,4.90
2023-05-18T04:56:40.078Z,4.93
2023-05-18T04:59:10.818Z,5.43
2023-05-18T05:01:39.075Z,5.47
2023-05-18T05:04:07.457Z,5.80
2023-05-18T05:06:35.870Z,6.87
2023-05-18T05:09:04.854Z,5.63
2023-05-18T05:11:33.168Z,5.70
2023-05-18T05:14:03.808Z,5.50
2023-05-18T05:16:32.507Z,5.77
2023-05-18T05:19:00.867Z,5.70
2023-05-18T05:21:29.280Z,5.60
2023-05-18T05:23:57.526Z,6.20
2023-05-18T05:26:27.714Z,5.77
2023-05-18T05:28:55.930Z,5.70
2023-05-18T05:31:26.270Z,5.87
2023-05-18T05:33:54.668Z,5.47
2023-05-18T05:36:22.896Z,5.30
2023-05-18T05:38:51.474Z,5.77
2023-05-18T05:41:19.700Z,6.17
2023-05-18T05:43:47.893Z,6.27
2023-05-18T05:46:16.137Z,5.93
2023-05-18T05:48:45.959Z,5.83
2023-05-18T05:51:14.181Z,5.67
2023-05-18T05:53:44.042Z,6.47
2023-05-18T05:56:12.424Z,5.40
2023-05-18T05:58:43.229Z,5.10
2023-05-18T06:01:11.733Z,6.60
2023-05-18T06:03:40.433Z,5.47
2023-05-18T06:06:11.420Z,5.70
2023-05-18T06:08:39.643Z,6.60
2023-05-18T06:11:10.783Z,5.87
2023-05-18T06:13:39.920Z,6.10
2023-05-18T06:16:09.517Z,6.07
2023-05-18T06:18:38.286Z,6.53
2023-05-18T06:21:07.388Z,6.43
2023-05-18T06:23:39.522Z,6.43
2023-05-18T06:26:22.132Z,6.53
2023-05-18T06:29:05.673Z,6.23
2023-05-18T06:31:44.665Z,5.67
2023-05-18T06:34:19.232Z,6.47
2023-05-18T06:36:47.567Z,5.43
2023-05-18T06:39:17.418Z,7.17
2023-05-18T06:41:46.176Z,6.40
2023-05-18T06:44:22.564Z,5.90
2023-05-18T06:47:05.128Z,6.00
2023-05-18T06:49:33.578Z,6.20
2023-05-18T06:52:01.886Z,6.40
2023-05-18T06:54:31.410Z,6.83
2023-05-18T06:57:00.466Z,6.73
2023-05-18T06:59:28.943Z,5.90
2023-05-18T07:01:57.507Z,5.67
2023-05-18T07:04:26.470Z,6.10
2023-05-18T07:06:55.882Z,6.50
2023-05-18T07:09:24.461Z,5.60
2023-05-18T07:11:54.125Z,5.90
2023-05-18T07:14:22.401Z,6.50
2023-05-18T07:16:50.617Z,6.10
2023-05-18T07:19:18.912Z,5.63
2023-05-18T07:21:47.125Z,6.00
2023-05-18T07:24:15.948Z,5.80
2023-05-18T07:26:44.430Z,5.93
2023-05-18T07:29:14.089Z,6.10
2023-05-18T07:31:42.356Z,5.87
2023-05-18T07:34:10.751Z,6.17
2023-05-18T07:36:39.015Z,5.33
2023-05-18T07:39:07.282Z,5.83
2023-05-18T07:41:36.248Z,6.00
2023-05-18T07:44:04.460Z,5.90
2023-05-18T07:46:34.059Z,6.20
2023-05-18T07:49:02.340Z,5.23
2023-05-18T07:51:30.642Z,5.37
2023-05-18T07:53:58.875Z,6.00
2023-05-18T07:56:27.061Z,5.40
2023-05-18T07:58:55.284Z,5.10
2023-05-18T08:01:27.448Z,5.37
2023-05-18T08:03:57.346Z,5.33
2023-05-18T08:06:25.691Z,4.60
2023-05-18T08:08:54.280Z,5.27
2023-05-18T08:11:22.556Z,4.33
2023-05-18T08:13:51.497Z,4.80
2023-05-18T08:16:19.950Z,4.87
2023-05-18T08:18:48.223Z,4.83
2023-05-18T08:21:18.409Z,5.20
2023-05-18T08:23:47.758Z,4.93
2023-05-18T08:26:16.013Z,5.07
2023-05-18T08:28:45.278Z,5.10
2023-05-18T08:31:13.548Z,5.10
2023-05-18T08:33:42.042Z,5.57
2023-05-18T08:36:11.164Z,5.40
2023-05-18T08:38:40.749Z,4.83
2023-05-18T08:41:21.143Z,5.17
2023-05-18T08:43:55.080Z,4.60
2023-05-18T08:46:31.970Z,4.57
2023-05-18T08:49:02.081Z,5.17
2023-05-18T08:51:36.703Z,4.67
2023-05-18T08:54:07.291Z,5.37
2023-05-18T08:56:35.819Z,5.10
2023-05-18T08:59:08.051Z,4.93
2023-05-18T09:01:37.131Z,4.80
2023-05-18T09:04:06.452Z,5.00
2023-05-18T09:06:35.875Z,4.83
2023-05-18T09:09:06.559Z,5.37
2023-05-18T09:11:35.924Z,5.03
2023-05-18T09:14:04.217Z,4.87
2023-05-18T09:16:33.322Z,4.83
2023-05-18T09:19:01.945Z,5.00
2023-05-18T09:21:33.464Z,5.13
2023-05-18T09:24:02.113Z,4.60
2023-05-18T09:26:31.963Z,4.27
2023-05-18T09:29:00.604Z,4.70
2023-05-18T09:31:31.589Z,4.33
2023-05-18T09:34:01.261Z,4.37
2023-05-18T09:36:30.449Z,4.03
2023-05-18T09:38:58.803Z,4.50
2023-05-18T09:41:28.712Z,4.70
2023-05-18T09:43:58.312Z,4.60
2023-05-18T09:46:26.787Z,4.13
2023-05-18T09:48:56.394Z,4.17
2023-05-18T09:51:25.754Z,4.30
2023-05-18T09:53:59.076Z,4.00
2023-05-18T09:56:28.585Z,4.67
2023-05-18T09:59:09.058Z,4.33
2023-05-18T10:01:37.398Z,4.00
2023-05-18T10:04:07.334Z,3.97
2023-05-18T10:06:36.072Z,3.83
2023-05-18T10:09:05.663Z,4.57
2023-05-18T10:11:34.639Z,4.80
2023-05-18T10:14:04.293Z,4.93
2023-05-18T10:16:33.717Z,4.40
2023-05-18T10:19:03.443Z,4.40
2023-05-18T10:21:35.009Z,4.37
2023-05-18T10:24:08.759Z,4.70
2023-05-18T10:26:40.142Z,3.80
2023-05-18T10:29:10.569Z,4.23
2023-05-18T10:31:40.210Z,4.33
2023-05-18T10:34:11.122Z,4.70
2023-05-18T10:36:39.659Z,4.13
2023-05-18T10:39:11.268Z,4.43
2023-05-18T10:41:41.084Z,4.50
2023-05-18T10:44:11.568Z,4.23
2023-05-18T10:46:41.716Z,4.20
2023-05-18T10:49:13.400Z,4.23
2023-05-18T10:51:44.691Z,4.30
2023-05-18T10:54:15.553Z,4.53
2023-05-18T10:56:47.792Z,3.70
2023-05-18T10:59:18.887Z,4.60
2023-05-18T11:01:48.868Z,3.53
2023-05-18T11:04:17.503Z,4.67
2023-05-18T11:06:56.836Z,3.93
2023-05-18T11:09:26.728Z,4.30
2023-05-18T11:11:58.803Z,4.50
2023-05-18T11:14:30.147Z,4.40
2023-05-18T11:17:18.029Z,5.00
2023-05-18T11:20:17.367Z,4.10
2023-05-18T11:22:51.706Z,4.80
2023-05-18T11:25:44.217Z,4.70
2023-05-18T11:28:14.625Z,4.30
2023-05-18T11:30:53.539Z,4.23
2023-05-18T11:33:30.075Z,4.63
2023-05-18T11:36:04.397Z,4.43
2023-05-18T11:38:54.260Z,4.50
2023-05-18T11:41:34.718Z,4.40
2023-05-18T11:44:21.370Z,4.37
2023-05-18T11:46:56.559Z,3.90
2023-05-18T11:49:26.531Z,4.37
2023-05-18T11:52:19.314Z,3.90
2023-05-18T11:54:52.351Z,4.70
2023-05-18T11:57:24.873Z,4.47
2023-05-18T11:59:58.066Z,4.17
2023-05-18T12:02:32.342Z,4.17
2023-05-18T12:05:02.364Z,4.50
2023-05-18T12:07:32.451Z,4.20
2023-05-18T12:10:03.046Z,4.63
2023-05-18T12:12:31.729Z,4.07
2023-05-18T12:15:01.908Z,3.70
2023-05-18T12:17:41.360Z,4.40
2023-05-18T12:20:13.249Z,4.70
2023-05-18T12:22:42.371Z,4.57
2023-05-18T12:25:12.169Z,4.57
2023-05-18T12:27:41.386Z,4.40
2023-05-18T12:30:13.836Z,4.10
2023-05-18T12:32:49.222Z,3.87
2023-05-18T12:35:17.983Z,4.57
2023-05-18T12:37:47.432Z,4.23
2023-05-18T12:40:18.439Z,4.57
2023-05-18T12:42:54.105Z,4.70
2023-05-18T12:45:26.697Z,3.90
2023-05-18T12:47:57.421Z,3.77
2023-05-18T12:50:26.911Z,4.10
2023-05-18T12:52:56.957Z,4.80
2023-05-18T12:55:26.575Z,4.10
2023-05-18T12:58:03.129Z,4.03
2023-05-18T13:00:34.778Z,4.03
2023-05-18T13:03:15.324Z,4.90
2023-05-18T13:05:45.746Z,4.60
2023-05-18T13:08:17.223Z,3.80
2023-05-18T13:10:47.036Z,3.97
2023-05-18T13:13:19.115Z,3.80
2023-05-18T13:15:47.675Z,3.70
2023-05-18T13:18:17.220Z,3.70
2023-05-18T13:20:51.110Z,3.80
2023-05-18T13:23:22.528Z,4.57
2023-05-18T13:25:52.033Z,4.33
2023-05-18T13:28:22.708Z,4.40
2023-05-18T13:30:51.348Z,4.20
2023-05-18T13:33:21.735Z,4.40
2023-05-18T13:35:50.994Z,3.80
2023-05-18T13:38:19.403Z,4.10
2023-05-18T13:40:47.646Z,4.03
2023-05-18T13:43:16.161Z,4.60
2023-05-18T13:45:44.913Z,4.10
2023-05-18T13:48:14.191Z,3.80
2023-05-18T13:50:43.970Z,5.13
2023-05-18T13:53:12.367Z,3.77
2023-05-18T13:55:40.704Z,4.70
2023-05-18T13:58:09.152Z,4.10
2023-05-18T14:00:38.030Z,4.27
2023-05-18T14:03:06.390Z,4.83
2023-05-18T14:05:34.833Z,4.03
2023-05-18T14:08:04.679Z,3.80
2023-05-18T14:10:33.091Z,3.90
2023-05-18T14:13:01.696Z,3.90
2023-05-18T14:15:29.902Z,3.97
2023-05-18T14:17:58.297Z,4.20
2023-05-18T14:20:26.528Z,4.73
2023-05-18T14:22:54.819Z,4.20
2023-05-18T14:25:24.420Z,3.87
2023-05-18T14:27:52.602Z,3.73
2023-05-18T14:30:20.887Z,4.83
2023-05-18T14:32:49.195Z,4.87
2023-05-18T14:35:18.467Z,4.43
2023-05-18T14:37:46.663Z,4.37
2023-05-18T14:40:15.224Z,4.60
2023-05-18T14:42:44.894Z,4.33
2023-05-18T14:45:13.256Z,4.67
2023-05-18T14:47:41.591Z,5.50
2023-05-18T14:50:10.746Z,4.43
2023-05-18T14:52:39.117Z,4.50
2023-05-18T14:55:08.394Z,4.57
2023-05-18T14:57:36.625Z,4.93
2023-05-18T15:00:07.953Z,4.50
2023-05-18T15:02:36.296Z,4.20
2023-05-18T15:05:05.166Z,4.57
2023-05-18T15:07:33.417Z,4.83
2023-05-18T15:10:01.950Z,4.33
2023-05-18T15:12:30.217Z,4.37
2023-05-18T15:14:59.015Z,4.40
2023-05-18T15:17:28.713Z,4.90
2023-05-18T15:19:56.997Z,4.60
2023-05-18T15:22:25.325Z,4.10
2023-05-18T15:24:53.612Z,4.57
2023-05-18T15:27:21.992Z,5.00
2023-05-18T15:29:50.249Z,4.23
2023-05-18T15:32:18.424Z,3.90
2023-05-18T15:34:48.109Z,4.43
2023-05-18T15:37:16.374Z,4.90
2023-05-18T15:39:44.584Z,3.67
2023-05-18T15:42:12.972Z,4.10
2023-05-18T15:44:41.270Z,3.83
2023-05-18T15:47:09.547Z,4.00
2023-05-18T15:49:37.729Z,4.07
2023-05-18T15:52:08.500Z,4.20
2023-05-18T15:54:36.810Z,4.57
2023-05-18T15:57:06.097Z,4.20
2023-05-18T15:59:34.333Z,3.93
2023-05-18T16:02:02.992Z,3.87
2023-05-18T16:04:31.334Z,3.80
2023-05-18T16:06:59.612Z,3.67
2023-05-18T16:09:29.275Z,4.37
2023-05-18T16:11:57.581Z,4.40
2023-05-18T16:14:25.897Z,4.10
2023-05-18T16:16:54.251Z,4.07
2023-05-18T16:19:22.606Z,4.47
2023-05-18T16:21:50.974Z,4.10
2023-05-18T16:24:19.242Z,3.83
2023-05-18T16:26:48.754Z,4.07
2023-05-18T16:29:17.040Z,4.17
2023-05-18T16:31:45.596Z,4.37
2023-05-18T16:34:13.824Z,4.13
2023-05-18T16:36:42.044Z,3.50
2023-05-18T16:39:10.275Z,4.00
2023-05-18T16:41:38.458Z,4.10
2023-05-18T16:44:08.129Z,4.10
2023-05-18T16:46:36.435Z,3.77
2023-05-18T16:49:05.022Z,3.57
2023-05-18T16:51:33.565Z,4.40
2023-05-18T16:54:01.743Z,4.10
2023-05-18T16:56:30.016Z,4.10
2023-05-18T16:58:58.254Z,3.90
2023-05-18T17:01:29.222Z,3.50
2023-05-18T17:03:58.526Z,3.73
2023-05-18T17:06:27.222Z,3.70
2023-05-18T17:08:58.574Z,3.93
2023-05-18T17:11:27.798Z,3.83
2023-05-18T17:13:57.563Z,3.73
2023-05-18T17:16:28.567Z,3.87
2023-05-18T17:18:57.718Z,4.13
2023-05-18T17:21:28.266Z,3.90
2023-05-18T17:23:56.812Z,3.83
2023-05-18T17:26:30.365Z,3.80
2023-05-18T17:28:58.683Z,3.77
2023-05-18T17:31:28.679Z,3.90
2023-05-18T17:33:56.925Z,3.47
2023-05-18T17:36:25.618Z,4.10
2023-05-18T17:38:53.966Z,3.90
2023-05-18T17:41:22.585Z,4.07
2023-05-18T17:43:50.775Z,3.97
2023-05-18T17:46:19.182Z,3.77
2023-05-18T17:48:48.987Z,4.77
2023-05-18T17:51:17.382Z,4.47
2023-05-18T17:53:46.134Z,4.50
2023-05-18T17:56:14.416Z,3.87
2023-05-18T17:58:42.829Z,3.50
2023-05-18T18:01:12.227Z,4.60
2023-05-18T18:03:41.920Z,4.23
2023-05-18T18:06:11.804Z,3.30
2023-05-18T18:08:40.168Z,4.47
2023-05-18T18:11:09.574Z,4.63
2023-05-18T18:13:38.184Z,4.33
2023-05-18T18:16:07.304Z,4.20
2023-05-18T18:18:37.053Z,3.93
2023-05-18T18:21:06.443Z,4.13
2023-05-18T18:23:37.066Z,4.17
2023-05-18T18:26:06.712Z,3.57
2023-05-18T18:28:36.121Z,4.23
2023-05-18T18:31:04.771Z,4.10
2023-05-18T18:33:33.605Z,4.67
2023-05-18T18:36:02.340Z,4.60
2023-05-18T18:38:30.533Z,4.93
2023-05-18T18:41:04.067Z,4.27
2023-05-18T18:43:32.796Z,4.20
2023-05-18T18:46:01.086Z,5.43
2023-05-18T18:48:29.377Z,4.60
2023-05-18T18:50:57.640Z,4.20
2023-05-18T18:53:26.129Z,4.67
2023-05-18T18:55:54.427Z,4.60
2023-05-18T18:58:24.555Z,4.87
2023-05-18T19:00:52.830Z,4.10
2023-05-18T19:03:22.012Z,4.50
2023-05-18T19:05:51.442Z,4.77
2023-05-18T19:08:19.722Z,4.60
2023-05-18T19:10:47.909Z,4.30
2023-05-18T19:13:16.100Z,5.03
2023-05-18T19:15:47.083Z,4.60
2023-05-18T19:18:15.455Z,4.67
2023-05-18T19:20:43.744Z,5.33
2023-05-18T19:23:12.009Z,4.90
2023-05-18T19:25:40.358Z,5.23
2023-05-18T19:28:08.643Z,5.00
2023-05-18T19:30:36.834Z,5.63
2023-05-18T19:33:06.447Z,4.93
2023-05-18T19:35:34.822Z,5.13
2023-05-18T19:38:03.269Z,5.17
2023-05-18T19:40:31.502Z,5.00
2023-05-18T19:43:01.519Z,5.67
2023-05-18T19:45:30.385Z,5.00
2023-05-18T19:47:58.905Z,5.60
2023-05-18T19:50:28.486Z,5.13
2023-05-18T19:52:56.912Z,5.27
2023-05-18T19:55:25.446Z,4.93
2023-05-18T19:57:53.877Z,5.03
2023-05-18T20:00:22.033Z,5.63
2023-05-18T20:02:50.224Z,5.70
2023-05-18T20:05:19.170Z,5.30
2023-05-18T20:07:48.702Z,6.30
2023-05-18T20:10:18.454Z,6.03
2023-05-18T20:12:46.627Z,5.40
2023-05-18T20:15:14.951Z,6.10
2023-05-18T20:17:43.642Z,6.50
2023-05-18T20:20:12.441Z,5.87
2023-05-18T20:22:40.849Z,6.37
2023-05-18T20:25:12.113Z,6.10
2023-05-18T20:27:40.398Z,6.03
2023-05-18T20:30:10.159Z,6.17
2023-05-18T20:32:38.546Z,6.00
2023-05-18T20:35:07.704Z,6.33
2023-05-18T20:37:35.959Z,6.40
2023-05-18T20:40:09.066Z,5.93
2023-05-18T20:42:40.928Z,5.90
2023-05-18T20:45:10.386Z,6.90
2023-05-18T20:47:38.817Z,6.07
2023-05-18T20:50:09.114Z,6.33
2023-05-18T20:52:37.359Z,6.73
2023-05-18T20:55:06.324Z,6.30
2023-05-18T20:57:34.903Z,6.10
2023-05-18T21:00:05.212Z,6.60
2023-05-18T21:02:33.844Z,6.47
2023-05-18T21:05:02.740Z,6.67
2023-05-18T21:07:31.913Z,5.97
2023-05-18T21:10:00.435Z,5.67
2023-05-18T21:12:28.679Z,6.30
2023-05-18T21:14:57.347Z,6.90
2023-05-18T21:17:27.026Z,6.93
2023-05-18T21:19:55.302Z,6.90
2023-05-18T21:22:23.457Z,6.90
2023-05-18T21:24:51.696Z,7.27
2023-05-18T21:27:20.008Z,7.57
2023-05-18T21:29:48.236Z,6.17
2023-05-18T21:32:16.598Z,6.53
2023-05-18T21:34:46.339Z,8.10
2023-05-18T21:37:14.716Z,6.33
2023-05-18T21:39:44.063Z,6.80
2023-05-18T21:42:12.245Z,7.53
2023-05-18T21:44:40.474Z,6.33
2023-05-18T21:47:08.775Z,6.73
2023-05-18T21:49:36.932Z,6.47
2023-05-18T21:52:06.772Z,6.47
2023-05-18T21:54:35.493Z,6.97
2023-05-18T21:57:04.135Z,6.40
2023-05-18T21:59:32.383Z,6.23
2023-05-18T22:02:00.923Z,6.77
2023-05-18T22:04:29.248Z,6.87
2023-05-18T22:06:57.492Z,7.20
2023-05-18T22:09:27.484Z,7.37
2023-05-18T22:11:55.762Z,7.37
2023-05-18T22:14:24.006Z,7.47
2023-05-18T22:16:52.362Z,7.80
2023-05-18T22:19:20.663Z,8.03
2023-05-18T22:21:49.112Z,7.33
2023-05-18T22:24:17.665Z,7.40
2023-05-18T22:26:47.293Z,8.60
2023-05-18T22:29:15.533Z,8.40
2023-05-18T22:31:43.848Z,8.97
2023-05-18T22:34:12.146Z,7.70
2023-05-18T22:36:40.601Z,8.00
2023-05-18T22:39:10.957Z,8.27
2023-05-18T22:41:39.178Z,7.83
2023-05-18T22:44:08.690Z,8.40
2023-05-18T22:46:37.155Z,8.13
2023-05-18T22:49:06.629Z,8.33
2023-05-18T22:51:35.717Z,8.87
2023-05-18T22:54:03.989Z,8.27
2023-05-18T22:56:32.319Z,8.33
2023-05-18T22:59:01.089Z,8.30
2023-05-18T23:01:31.301Z,9.23
2023-05-18T23:04:00.497Z,9.63
2023-05-18T23:06:31.668Z,8.40
2023-05-18T23:09:00.767Z,8.70
2023-05-18T23:11:31.022Z,8.47
2023-05-18T23:14:02.579Z,9.33
2023-05-18T23:16:32.386Z,8.40
2023-05-18T23:19:01.747Z,8.73
2023-05-18T23:21:31.065Z,8.50
2023-05-18T23:23:59.944Z,8.50
2023-05-18T23:26:28.293Z,8.17
2023-05-18T23:28:56.580Z,8.17
2023-05-18T23:31:24.990Z,8.23
2023-05-18T23:33:55.649Z,7.60
2023-05-18T23:36:27.409Z,7.30
2023-05-18T23:38:58.956Z,7.53
2023-05-18T23:41:28.775Z,8.47
2023-05-18T23:43:57.942Z,7.87
2023-05-18T23:46:27.251Z,8.27
2023-05-18T23:48:59.599Z,8.50
2023-05-18T23:51:33.044Z,7.20
2023-05-18T23:54:03.999Z,7.80
2023-05-18T23:56:34.209Z,7.60
2023-05-18T23:59:03.605Z,7.97
